createdAt,value
2022-10-22T00:01:56.723Z,30.58
2022-10-22T00:03:58.347Z,31.50
2022-10-22T00:06:00.132Z,31.52
2022-10-22T00:08:01.675Z,31.35
2022-10-22T00:10:04.361Z,30.90
2022-10-22T00:12:06.215Z,31.20
2022-10-22T00:14:07.957Z,31.80
2022-10-22T00:16:10.209Z,30.17
2022-10-22T00:18:11.971Z,31.58
2022-10-22T00:20:13.462Z,29.85
2022-10-22T00:22:14.998Z,30.45
2022-10-22T00:24:16.735Z,29.52
2022-10-22T00:26:18.247Z,30.95
2022-10-22T00:28:19.812Z,29.98
2022-10-22T00:30:21.574Z,30.73
2022-10-22T00:32:23.080Z,31.48
2022-10-22T00:34:24.776Z,28.35
2022-10-22T00:36:26.484Z,29.42
2022-10-22T00:38:28.186Z,29.08
2022-10-22T00:40:30.047Z,30.45
2022-10-22T00:42:31.763Z,30.30
2022-10-22T00:44:52.142Z,31.10
2022-10-22T00:46:53.701Z,30.27
2022-10-22T00:48:56.635Z,31.63
2022-10-22T00:51:02.971Z,30.63
2022-10-22T00:53:06.400Z,29.92
2022-10-22T00:55:08.358Z,28.90
2022-10-22T00:57:10.077Z,30.80
2022-10-22T00:59:12.651Z,30.73
2022-10-22T01:01:16.827Z,30.75
2022-10-22T01:03:18.650Z,29.38
2022-10-22T01:05:20.311Z,29.95
2022-10-22T01:07:23.892Z,29.08
2022-10-22T01:09:25.415Z,29.45
2022-10-22T01:11:42.329Z,30.33
2022-10-22T01:13:49.122Z,30.40
2022-10-22T01:16:03.145Z,30.88
2022-10-22T01:18:24.920Z,30.55
2022-10-22T01:20:38.880Z,28.85
2022-10-22T01:22:46.370Z,28.63
2022-10-22T01:24:57.332Z,28.13
2022-10-22T01:26:59.043Z,29.98
2022-10-22T01:29:02.681Z,29.52
2022-10-22T01:31:05.566Z,29.45
2022-10-22T01:33:09.810Z,28.13
2022-10-22T01:35:12.723Z,30.20
2022-10-22T01:37:15.300Z,29.63
2022-10-22T01:39:17.767Z,29.40
2022-10-22T01:41:19.404Z,29.77
2022-10-22T01:43:20.952Z,28.77
2022-10-22T01:45:22.782Z,28.95
2022-10-22T01:47:43.688Z,28.95
2022-10-22T01:49:51.249Z,27.92
2022-10-22T01:51:52.955Z,28.77
2022-10-22T01:54:01.275Z,29.67
2022-10-22T01:56:09.140Z,29.23
2022-10-22T01:58:10.845Z,29.40
2022-10-22T02:00:14.174Z,29.58
2022-10-22T02:02:34.817Z,30.27
2022-10-22T02:04:42.567Z,30.52
2022-10-22T02:06:45.335Z,31.45
2022-10-22T02:08:47.762Z,32.35
2022-10-22T02:10:50.495Z,32.40
2022-10-22T02:12:53.889Z,32.35
2022-10-22T02:14:55.689Z,31.80
2022-10-22T02:16:58.116Z,32.33
2022-10-22T02:19:01.911Z,32.25
2022-10-22T02:21:03.491Z,32.40
2022-10-22T02:23:05.637Z,33.35
2022-10-22T02:25:07.891Z,32.47
2022-10-22T02:27:09.415Z,35.13
2022-10-22T02:29:13.639Z,32.05
2022-10-22T02:31:19.169Z,34.38
2022-10-22T02:33:20.656Z,34.33
2022-10-22T02:35:23.370Z,35.00
2022-10-22T02:37:25.657Z,34.38
2022-10-22T02:39:27.883Z,33.22
2022-10-22T02:41:29.794Z,36.45
2022-10-22T02:43:31.334Z,35.85
2022-10-22T02:45:33.814Z,36.78
2022-10-22T02:47:35.599Z,36.25
2022-10-22T02:49:37.209Z,35.83
2022-10-22T02:51:39.110Z,35.90
2022-10-22T02:53:40.868Z,36.83
2022-10-22T02:55:42.474Z,36.08
2022-10-22T02:57:44.164Z,37.00
2022-10-22T02:59:45.983Z,38.72
2022-10-22T03:01:47.474Z,37.30
2022-10-22T03:03:49.089Z,37.22
2022-10-22T03:05:51.372Z,37.25
2022-10-22T03:07:52.928Z,38.07
2022-10-22T03:09:54.606Z,37.80
2022-10-22T03:11:56.578Z,37.05
2022-10-22T03:13:58.110Z,37.33
2022-10-22T03:15:59.771Z,37.45
2022-10-22T03:18:01.563Z,37.35
2022-10-22T03:20:03.470Z,37.80
2022-10-22T03:22:10.261Z,38.30
2022-10-22T03:24:13.437Z,38.63
2022-10-22T03:26:15.340Z,38.05
2022-10-22T03:28:17.191Z,39.08
2022-10-22T03:30:19.026Z,36.90
2022-10-22T03:32:20.666Z,35.72
2022-10-22T03:34:22.167Z,36.10
2022-10-22T03:36:23.922Z,37.80
2022-10-22T03:38:25.480Z,35.92
2022-10-22T03:40:27.104Z,37.08
2022-10-22T03:42:28.938Z,36.88
2022-10-22T03:44:30.542Z,37.25
2022-10-22T03:46:32.040Z,38.95
2022-10-22T03:48:33.803Z,37.25
2022-10-22T03:50:35.314Z,38.65
2022-10-22T03:52:37.909Z,36.72
2022-10-22T03:54:39.751Z,37.75
2022-10-22T03:56:41.353Z,37.20
2022-10-22T03:58:42.906Z,37.38
2022-10-22T04:00:44.660Z,38.00
2022-10-22T04:02:46.285Z,37.08
2022-10-22T04:04:47.777Z,37.65
2022-10-22T04:06:49.469Z,37.58
2022-10-22T04:08:51.052Z,37.60
2022-10-22T04:10:52.580Z,36.35
2022-10-22T04:12:54.521Z,37.22
2022-10-22T04:14:56.057Z,37.15
2022-10-22T04:16:57.713Z,37.53
2022-10-22T04:18:59.469Z,37.40
2022-10-22T04:21:01.191Z,36.63
2022-10-22T04:23:02.725Z,35.70
2022-10-22T04:25:05.122Z,37.00
2022-10-22T04:27:06.637Z,37.72
2022-10-22T04:29:11.864Z,38.25
2022-10-22T04:31:18.275Z,36.33
2022-10-22T04:33:19.934Z,36.50
2022-10-22T04:35:21.435Z,36.67
2022-10-22T04:37:23.310Z,34.97
2022-10-22T04:39:24.865Z,36.70
2022-10-22T04:41:27.899Z,35.15
2022-10-22T04:43:29.664Z,36.00
2022-10-22T04:45:35.126Z,35.33
2022-10-22T04:47:36.638Z,33.70
2022-10-22T04:49:38.355Z,35.00
2022-10-22T04:51:40.006Z,33.92
2022-10-22T04:53:41.611Z,35.00
2022-10-22T04:55:43.387Z,33.67
2022-10-22T04:57:44.961Z,33.65
2022-10-22T04:59:46.546Z,33.80
2022-10-22T05:01:48.323Z,33.92
2022-10-22T05:03:51.081Z,33.83
2022-10-22T05:05:52.574Z,34.78
2022-10-22T05:07:54.284Z,33.63
2022-10-22T05:09:55.784Z,33.50
2022-10-22T05:11:57.358Z,35.15
2022-10-22T05:14:00.379Z,34.55
2022-10-22T05:16:02.268Z,34.92
2022-10-22T05:18:04.050Z,33.87
2022-10-22T05:20:06.073Z,34.95
2022-10-22T05:22:07.767Z,33.00
2022-10-22T05:24:09.315Z,33.47
2022-10-22T05:26:12.061Z,33.47
2022-10-22T05:28:13.673Z,32.55
2022-10-22T05:30:15.351Z,33.53
2022-10-22T05:32:18.157Z,34.17
2022-10-22T05:34:19.993Z,34.95
2022-10-22T05:36:22.424Z,34.35
2022-10-22T05:38:24.262Z,33.78
2022-10-22T05:40:30.874Z,33.17
2022-10-22T05:42:33.342Z,32.25
2022-10-22T05:44:35.216Z,32.40
2022-10-22T05:46:36.821Z,31.77
2022-10-22T05:48:38.672Z,32.72
2022-10-22T05:50:40.395Z,31.30
2022-10-22T05:52:42.229Z,31.17
2022-10-22T05:54:43.890Z,31.50
2022-10-22T05:56:45.864Z,32.10
2022-10-22T05:58:48.240Z,32.85
2022-10-22T06:00:49.788Z,33.13
2022-10-22T06:02:51.607Z,35.63
2022-10-22T06:04:53.135Z,33.22
2022-10-22T06:06:55.117Z,34.50
2022-10-22T06:08:59.768Z,33.65
2022-10-22T06:11:01.314Z,32.95
2022-10-22T06:13:03.248Z,31.00
2022-10-22T06:15:05.242Z,31.20
2022-10-22T06:17:06.988Z,30.65
2022-10-22T06:19:09.717Z,29.27
2022-10-22T06:21:12.588Z,28.77
2022-10-22T06:23:14.888Z,29.42
2022-10-22T06:25:16.374Z,28.25
2022-10-22T06:27:18.072Z,42.20
2022-10-22T06:29:19.818Z,32.22
2022-10-22T06:31:21.384Z,29.83
2022-10-22T06:33:23.304Z,27.88
2022-10-22T06:35:24.805Z,28.92
2022-10-22T06:37:26.381Z,27.73
2022-10-22T06:39:28.173Z,27.38
2022-10-22T06:41:29.862Z,27.60
2022-10-22T06:43:31.701Z,26.75
2022-10-22T06:45:33.441Z,27.73
2022-10-22T06:47:35.110Z,27.52
2022-10-22T06:49:36.767Z,27.35
2022-10-22T06:51:38.471Z,29.35
2022-10-22T06:53:40.416Z,27.27
2022-10-22T06:55:41.933Z,27.02
2022-10-22T06:57:43.835Z,27.52
2022-10-22T06:59:46.057Z,26.33
2022-10-22T07:01:47.786Z,27.07
2022-10-22T07:03:50.489Z,27.45
2022-10-22T07:05:52.484Z,26.23
2022-10-22T07:07:54.032Z,25.85
2022-10-22T07:09:55.758Z,26.45
2022-10-22T07:11:57.340Z,25.85
2022-10-22T07:13:59.462Z,25.52
2022-10-22T07:16:01.403Z,25.40
2022-10-22T07:18:04.751Z,25.75
2022-10-22T07:20:06.818Z,25.95
2022-10-22T07:22:08.530Z,26.10
2022-10-22T07:24:10.380Z,26.10
2022-10-22T07:26:13.040Z,26.30
2022-10-22T07:28:14.784Z,27.13
2022-10-22T07:30:16.397Z,26.48
2022-10-22T07:32:20.612Z,27.80
2022-10-22T07:34:24.657Z,26.73
2022-10-22T07:36:26.241Z,26.40
2022-10-22T07:38:28.431Z,26.35
2022-10-22T07:40:30.435Z,27.58
2022-10-22T07:42:32.002Z,27.63
2022-10-22T07:44:33.542Z,27.80
2022-10-22T07:46:35.309Z,26.73
2022-10-22T07:48:37.094Z,27.65
2022-10-22T07:50:38.745Z,27.92
2022-10-22T07:52:40.769Z,26.92
2022-10-22T07:54:42.466Z,27.90
2022-10-22T07:56:44.035Z,27.67
2022-10-22T07:58:45.828Z,27.83
2022-10-22T08:00:47.938Z,28.13
2022-10-22T08:02:49.595Z,28.92
2022-10-22T08:04:51.931Z,26.73
2022-10-22T08:06:53.739Z,27.27
2022-10-22T08:08:55.803Z,27.37
2022-10-22T08:10:59.554Z,27.20
2022-10-22T08:13:01.177Z,27.80
2022-10-22T08:15:02.815Z,29.17
2022-10-22T08:17:04.774Z,28.42
2022-10-22T08:19:06.392Z,26.00
2022-10-22T08:21:08.002Z,28.55
2022-10-22T08:23:09.734Z,28.27
2022-10-22T08:25:11.666Z,27.80
2022-10-22T08:27:13.301Z,27.48
2022-10-22T08:29:15.041Z,26.80
2022-10-22T08:31:16.544Z,28.15
2022-10-22T08:33:18.397Z,28.05
2022-10-22T08:35:20.145Z,28.10
2022-10-22T08:37:22.132Z,28.17
2022-10-22T08:39:23.928Z,29.80
2022-10-22T08:41:26.089Z,28.52
2022-10-22T08:43:41.833Z,29.08
2022-10-22T08:45:50.593Z,28.88
2022-10-22T08:48:11.746Z,27.50
2022-10-22T08:50:17.654Z,27.25
2022-10-22T08:52:19.603Z,27.80
2022-10-22T08:54:25.150Z,28.02
2022-10-22T08:56:26.852Z,33.35
2022-10-22T08:58:43.517Z,28.45
2022-10-22T09:01:05.799Z,28.83
2022-10-22T09:03:07.403Z,26.27
2022-10-22T09:05:24.717Z,27.25
2022-10-22T09:07:26.536Z,26.52
2022-10-22T09:09:31.863Z,26.45
2022-10-22T09:11:35.813Z,27.80
2022-10-22T09:13:38.081Z,27.67
2022-10-22T09:17:58.640Z,26.40
2022-10-22T09:20:09.730Z,28.02
2022-10-22T09:22:31.711Z,27.65
2022-10-22T09:24:41.928Z,28.58
2022-10-22T09:26:43.967Z,29.02
2022-10-22T09:28:49.663Z,27.92
2022-10-22T09:30:51.596Z,29.83
2022-10-22T09:33:10.875Z,28.67
2022-10-22T09:35:13.321Z,28.70
2022-10-22T09:37:17.521Z,29.35
2022-10-22T09:39:28.185Z,28.88
2022-10-22T09:41:31.268Z,53.97
2022-10-22T09:43:33.638Z,29.70
2022-10-22T09:45:35.445Z,28.50
2022-10-22T09:48:01.216Z,29.02
2022-10-22T09:50:09.613Z,28.20
2022-10-22T09:52:28.030Z,27.95
2022-10-22T09:54:33.385Z,30.08
2022-10-22T09:56:36.225Z,28.33
2022-10-22T09:58:42.805Z,28.50
2022-10-22T10:00:45.960Z,26.42
2022-10-22T10:02:47.622Z,29.50
2022-10-22T10:04:52.076Z,27.83
2022-10-22T10:06:55.648Z,28.75
2022-10-22T10:08:59.342Z,28.35
2022-10-22T10:11:05.795Z,29.17
2022-10-22T10:13:30.637Z,29.48
2022-10-22T10:15:39.678Z,28.83
2022-10-22T10:18:00.227Z,29.20
2022-10-22T10:20:20.878Z,28.38
2022-10-22T10:22:38.662Z,28.85
2022-10-22T10:24:55.916Z,29.33
2022-10-22T10:27:10.097Z,28.42
2022-10-22T10:29:14.857Z,27.42
2022-10-22T10:31:22.747Z,28.38
2022-10-22T10:33:32.985Z,29.13
2022-10-22T10:35:40.547Z,28.23
2022-10-22T10:37:50.275Z,27.98
2022-10-22T10:40:00.753Z,28.83
2022-10-22T10:42:28.834Z,28.25
2022-10-22T10:44:37.154Z,29.35
2022-10-22T10:46:47.345Z,29.52
2022-10-22T10:48:58.096Z,29.65
2022-10-22T10:51:02.694Z,29.80
2022-10-22T10:53:10.240Z,28.88
2022-10-22T10:55:31.516Z,28.80
2022-10-22T10:57:52.147Z,31.00
2022-10-22T10:59:56.399Z,29.38
2022-10-22T11:02:18.871Z,30.13
2022-10-22T11:04:39.443Z,31.00
2022-10-22T11:06:42.173Z,32.45
2022-10-22T11:08:48.660Z,32.17
2022-10-22T11:10:52.647Z,31.90
2022-10-22T11:12:57.576Z,30.80
2022-10-22T11:15:06.943Z,30.50
2022-10-22T11:17:14.135Z,30.85
2022-10-22T11:19:22.699Z,29.95
2022-10-22T11:21:33.178Z,30.05
2022-10-22T11:23:38.000Z,37.65
2022-10-22T11:25:46.691Z,32.80
2022-10-22T11:28:05.669Z,34.05
2022-10-22T11:30:17.358Z,33.63
2022-10-22T11:32:20.922Z,34.35
2022-10-22T11:34:34.577Z,33.22
2022-10-22T11:36:37.772Z,32.83
2022-10-22T11:38:39.587Z,33.72
2022-10-22T11:40:50.342Z,37.03
2022-10-22T11:42:57.535Z,33.80
2022-10-22T11:45:00.940Z,33.92
2022-10-22T11:47:14.774Z,34.33
2022-10-22T11:49:18.647Z,34.22
2022-10-22T11:51:31.879Z,34.13
2022-10-22T11:55:55.476Z,32.85
2022-10-22T11:57:58.972Z,33.58
2022-10-22T12:00:00.884Z,34.33
2022-10-22T12:02:02.691Z,34.38
2022-10-22T12:04:18.105Z,33.72
2022-10-22T12:06:26.493Z,36.63
2022-10-22T12:08:28.287Z,35.88
2022-10-22T12:10:35.365Z,34.67
2022-10-22T12:12:39.210Z,34.60
2022-10-22T12:14:52.237Z,34.97
2022-10-22T12:16:56.661Z,34.15
2022-10-22T12:19:25.811Z,34.28
2022-10-22T12:21:28.157Z,34.70
2022-10-22T12:23:31.341Z,34.72
2022-10-22T12:25:35.849Z,35.22
2022-10-22T12:27:39.310Z,36.40
2022-10-22T12:31:44.335Z,34.40
2022-10-22T12:33:46.404Z,35.17
2022-10-22T12:35:53.808Z,35.25
2022-10-22T12:37:57.290Z,34.80
2022-10-22T12:40:00.718Z,34.17
2022-10-22T12:42:04.397Z,33.72
2022-10-22T12:44:06.600Z,32.85
2022-10-22T12:46:16.238Z,32.78
2022-10-22T12:48:19.824Z,35.10
2022-10-22T12:50:23.379Z,34.50
2022-10-22T12:52:27.314Z,34.00
2022-10-22T12:54:29.717Z,34.35
2022-10-22T12:56:32.773Z,32.78
2022-10-22T13:00:36.930Z,31.67
2022-10-22T13:02:38.735Z,34.00
2022-10-22T13:04:40.672Z,33.60
2022-10-22T13:06:49.587Z,33.38
2022-10-22T13:08:56.867Z,34.08
2022-10-22T13:11:06.547Z,32.90
2022-10-22T13:13:28.068Z,33.40
2022-10-22T13:15:35.538Z,33.42
2022-10-22T13:17:38.930Z,35.05
2022-10-22T13:19:43.827Z,33.35
2022-10-22T13:21:49.862Z,34.10
2022-10-22T13:23:52.969Z,33.58
2022-10-22T13:25:57.779Z,33.83
2022-10-22T13:28:08.240Z,35.10
2022-10-22T13:30:15.934Z,33.38
2022-10-22T13:32:25.664Z,33.97
2022-10-22T13:34:33.666Z,35.20
2022-10-22T13:36:36.152Z,31.98
2022-10-22T13:38:37.736Z,34.20
2022-10-22T13:40:39.361Z,33.30
2022-10-22T13:42:41.440Z,32.92
2022-10-22T13:44:43.090Z,33.33
2022-10-22T13:46:45.113Z,32.63
2022-10-22T13:48:47.853Z,32.70
2022-10-22T13:50:50.135Z,36.80
2022-10-22T13:52:52.005Z,34.85
2022-10-22T13:54:54.056Z,35.33
2022-10-22T13:56:56.234Z,34.42
2022-10-22T13:58:57.833Z,34.72
2022-10-22T14:01:00.932Z,35.03
2022-10-22T14:03:02.790Z,34.33
2022-10-22T14:05:08.487Z,34.53
2022-10-22T14:07:14.401Z,33.45
2022-10-22T14:09:16.282Z,33.90
2022-10-22T14:11:18.005Z,34.50
2022-10-22T14:13:20.253Z,35.67
2022-10-22T14:15:24.068Z,35.47
2022-10-22T14:17:25.745Z,36.53
2022-10-22T14:19:27.583Z,34.97
2022-10-22T14:21:35.080Z,37.13
2022-10-22T14:23:37.004Z,36.58
2022-10-22T14:25:38.952Z,38.20
2022-10-22T14:27:40.676Z,37.13
2022-10-22T14:29:42.509Z,36.72
2022-10-22T14:31:45.117Z,36.45
2022-10-22T14:33:47.571Z,38.88
2022-10-22T14:35:49.667Z,38.15
2022-10-22T14:37:51.721Z,38.53
2022-10-22T14:39:59.616Z,36.72
2022-10-22T14:42:01.318Z,47.33
2022-10-22T14:44:03.512Z,42.67
2022-10-22T14:46:05.155Z,40.58
2022-10-22T14:48:06.873Z,38.33
2022-10-22T14:50:08.852Z,41.67
2022-10-22T14:52:14.845Z,39.65
2022-10-22T14:54:18.472Z,40.67
2022-10-22T14:56:23.358Z,40.63
2022-10-22T14:58:25.862Z,39.67
2022-10-22T15:00:27.560Z,38.78
2022-10-22T15:02:29.620Z,40.08
2022-10-22T15:04:33.775Z,40.13
2022-10-22T15:06:37.714Z,40.67
2022-10-22T15:08:39.592Z,42.95
2022-10-22T15:10:41.586Z,40.50
2022-10-22T15:12:43.155Z,41.92
2022-10-22T15:14:44.968Z,40.45
2022-10-22T15:16:46.470Z,42.30
2022-10-22T15:18:48.065Z,42.15
2022-10-22T15:20:56.747Z,41.95
2022-10-22T15:22:58.345Z,43.33
2022-10-22T15:24:59.988Z,44.92
2022-10-22T15:27:03.422Z,43.60
2022-10-22T15:29:05.189Z,43.53
2022-10-22T15:31:10.554Z,42.83
2022-10-22T15:33:12.652Z,43.10
2022-10-22T15:35:14.553Z,44.17
2022-10-22T15:37:16.120Z,43.05
2022-10-22T15:39:18.105Z,43.13
2022-10-22T15:41:19.684Z,45.38
2022-10-22T15:43:21.251Z,43.95
2022-10-22T15:45:24.997Z,45.25
2022-10-22T15:47:29.476Z,43.65
2022-10-22T15:49:31.659Z,45.78
2022-10-22T15:51:34.233Z,44.30
2022-10-22T15:53:35.972Z,44.47
2022-10-22T15:55:37.625Z,44.10
2022-10-22T15:57:39.705Z,45.70
2022-10-22T15:59:41.599Z,44.17
2022-10-22T16:01:43.271Z,45.65
2022-10-22T16:03:45.100Z,46.72
2022-10-22T16:05:50.200Z,44.50
2022-10-22T16:07:55.610Z,46.47
2022-10-22T16:09:58.361Z,47.15
2022-10-22T16:12:00.585Z,47.30
2022-10-22T16:14:02.194Z,44.88
2022-10-22T16:16:07.997Z,47.35
2022-10-22T16:18:09.789Z,48.67
2022-10-22T16:22:18.107Z,50.33
2022-10-22T16:24:20.762Z,50.30
2022-10-22T16:26:22.275Z,49.53
2022-10-22T16:28:24.514Z,49.47
2022-10-22T16:30:26.091Z,49.58
2022-10-22T16:32:27.981Z,50.28
2022-10-22T16:34:29.751Z,47.77
2022-10-22T16:36:31.447Z,48.67
2022-10-22T16:38:33.346Z,50.00
2022-10-22T16:40:35.922Z,50.17
2022-10-22T16:42:37.415Z,50.30
2022-10-22T16:44:39.424Z,52.72
2022-10-22T16:46:41.543Z,53.13
2022-10-22T16:48:51.140Z,53.15
2022-10-22T16:50:52.963Z,53.58
2022-10-22T16:52:55.891Z,51.50
2022-10-22T16:54:58.997Z,52.80
2022-10-22T16:57:00.552Z,52.00
2022-10-22T16:59:02.320Z,53.85
2022-10-22T17:01:10.288Z,53.13
2022-10-22T17:03:15.177Z,50.20
2022-10-22T17:05:18.133Z,52.83
2022-10-22T17:07:19.754Z,53.88
2022-10-22T17:09:21.501Z,52.78
2022-10-22T17:11:24.568Z,53.22
2022-10-22T17:13:26.241Z,51.88
2022-10-22T17:15:28.924Z,55.50
2022-10-22T17:17:31.664Z,54.47
2022-10-22T17:19:34.255Z,55.35
2022-10-22T17:21:35.926Z,54.08
2022-10-22T17:23:38.253Z,55.33
2022-10-22T17:25:43.623Z,56.47
2022-10-22T17:27:45.606Z,55.03
2022-10-22T17:29:47.382Z,58.73
2022-10-22T17:31:50.434Z,55.45
2022-10-22T17:33:55.025Z,57.38
2022-10-22T17:35:58.096Z,57.72
2022-10-22T17:37:59.615Z,56.05
2022-10-22T17:40:02.002Z,61.20
2022-10-22T17:42:03.902Z,59.53
2022-10-22T17:44:06.564Z,58.83
2022-10-22T17:46:13.252Z,59.85
2022-10-22T17:48:15.491Z,58.72
2022-10-22T17:50:17.172Z,58.65
2022-10-22T17:52:18.829Z,58.08
2022-10-22T17:54:24.061Z,58.80
2022-10-22T17:56:32.687Z,58.55
2022-10-22T17:58:35.534Z,58.55
2022-10-22T18:00:37.371Z,58.03
2022-10-22T18:02:40.125Z,58.28
2022-10-22T18:04:43.239Z,58.22
2022-10-22T18:08:48.931Z,58.58
2022-10-22T18:10:52.169Z,57.17
2022-10-22T18:12:53.941Z,58.05
2022-10-22T18:14:55.710Z,56.58
2022-10-22T18:16:57.545Z,68.72
2022-10-22T18:18:59.974Z,59.72
2022-10-22T18:21:01.849Z,58.00
2022-10-22T18:23:04.729Z,59.67
2022-10-22T18:25:08.567Z,58.15
2022-10-22T18:27:12.341Z,68.07
2022-10-22T18:29:15.328Z,62.08
2022-10-22T18:33:24.158Z,58.70
2022-10-22T18:35:27.203Z,56.85
2022-10-22T18:37:30.421Z,58.83
2022-10-22T18:39:40.709Z,58.50
2022-10-22T18:41:45.870Z,58.33
2022-10-22T18:43:54.365Z,60.95
2022-10-22T18:45:55.910Z,59.40
2022-10-22T18:48:02.768Z,57.63
2022-10-22T18:50:10.436Z,60.78
2022-10-22T18:52:13.678Z,60.00
2022-10-22T18:54:23.111Z,62.30
2022-10-22T18:56:26.299Z,57.90
2022-10-22T18:58:29.530Z,58.55
2022-10-22T19:00:31.445Z,56.35
2022-10-22T19:02:35.417Z,57.10
2022-10-22T19:04:37.208Z,56.45
2022-10-22T19:06:43.085Z,58.53
2022-10-22T19:08:54.704Z,55.60
2022-10-22T19:10:58.135Z,56.25
2022-10-22T19:13:01.290Z,58.63
2022-10-22T19:15:03.773Z,54.63
2022-10-22T19:17:05.786Z,56.10
2022-10-22T19:19:09.389Z,55.08
2022-10-22T19:21:13.951Z,56.67
2022-10-22T19:25:38.843Z,60.15
2022-10-22T19:27:57.214Z,52.80
2022-10-22T19:29:59.939Z,53.20
2022-10-22T19:32:04.967Z,53.33
2022-10-22T19:34:06.935Z,50.85
2022-10-22T19:36:12.779Z,51.83
2022-10-22T19:38:15.361Z,52.90
2022-10-22T19:40:20.887Z,50.50
2022-10-22T19:42:36.544Z,51.08
2022-10-22T19:44:39.472Z,54.50
2022-10-22T19:46:42.313Z,50.53
2022-10-22T19:50:54.029Z,49.45
2022-10-22T19:52:59.677Z,48.80
2022-10-22T19:55:03.531Z,48.13
2022-10-22T19:57:07.574Z,46.55
2022-10-22T19:59:14.342Z,45.55
2022-10-22T20:01:18.048Z,48.20
2022-10-22T20:03:20.104Z,46.40
2022-10-22T20:05:26.181Z,47.60
2022-10-22T20:07:33.325Z,47.75
2022-10-22T20:09:35.762Z,44.25
2022-10-22T20:11:37.951Z,45.47
2022-10-22T20:13:42.153Z,47.00
2022-10-22T20:15:49.919Z,65.97
2022-10-22T20:17:52.898Z,43.92
2022-10-22T20:19:56.561Z,45.50
2022-10-22T20:24:02.686Z,44.08
2022-10-22T20:26:06.300Z,44.80
2022-10-22T20:28:10.018Z,45.20
2022-10-22T20:34:21.057Z,42.28
2022-10-22T20:36:30.108Z,42.45
2022-10-22T20:40:38.197Z,43.20
2022-10-22T20:42:41.550Z,43.25
2022-10-22T20:44:44.036Z,41.83
2022-10-22T20:46:47.416Z,40.90
2022-10-22T20:51:12.587Z,38.70
2022-10-22T20:53:17.644Z,39.70
2022-10-22T20:55:20.077Z,38.63
2022-10-22T20:57:21.782Z,37.33
2022-10-22T20:59:24.101Z,36.03
2022-10-22T21:01:28.906Z,36.25
2022-10-22T21:03:31.015Z,34.65
2022-10-22T21:05:35.614Z,34.53
2022-10-22T21:07:37.779Z,32.78
2022-10-22T21:09:41.100Z,31.27
2022-10-22T21:11:44.457Z,29.42
2022-10-22T21:13:48.870Z,28.80
2022-10-22T21:15:57.791Z,29.35
2022-10-22T21:17:59.706Z,29.85
2022-10-22T21:20:02.117Z,29.70
2022-10-22T21:22:04.291Z,28.55
2022-10-22T21:24:06.316Z,28.35
2022-10-22T21:26:08.918Z,28.35
2022-10-22T21:28:11.124Z,27.73
2022-10-22T21:30:20.614Z,27.37
2022-10-22T21:32:28.936Z,28.10
2022-10-22T21:34:38.067Z,27.25
2022-10-22T21:38:50.329Z,29.23
2022-10-22T21:40:53.229Z,29.58
2022-10-22T21:42:55.393Z,30.58
2022-10-22T21:44:58.923Z,28.20
2022-10-22T21:47:00.821Z,29.58
2022-10-22T21:49:03.437Z,29.88
2022-10-22T21:51:06.325Z,28.33
2022-10-22T21:53:08.398Z,27.80
2022-10-22T21:55:13.281Z,29.17
2022-10-22T21:57:19.517Z,29.02
2022-10-22T21:59:21.123Z,30.13
2022-10-22T22:01:23.518Z,29.75
2022-10-22T22:03:26.231Z,30.17
2022-10-22T22:05:31.176Z,31.75
2022-10-22T22:07:32.996Z,30.60
2022-10-22T22:09:34.847Z,30.65
2022-10-22T22:11:37.795Z,33.47
2022-10-22T22:15:41.553Z,31.10
2022-10-22T22:17:43.128Z,29.77
2022-10-22T22:19:44.740Z,29.95
2022-10-22T22:21:46.485Z,31.67
2022-10-22T22:23:49.353Z,31.42
2022-10-22T22:25:50.997Z,31.23
2022-10-22T22:27:52.808Z,31.02
2022-10-22T22:29:54.383Z,33.03
2022-10-22T22:31:56.287Z,31.77
2022-10-22T22:33:59.193Z,31.05
2022-10-22T22:36:00.829Z,33.35
2022-10-22T22:38:04.258Z,31.65
2022-10-22T22:40:06.317Z,30.80
2022-10-22T22:42:07.923Z,31.40
2022-10-22T22:44:09.828Z,32.88
2022-10-22T22:46:12.499Z,32.30
2022-10-22T22:48:14.066Z,29.92
2022-10-22T22:50:15.724Z,31.63
2022-10-22T22:52:17.497Z,31.23
2022-10-22T22:54:19.385Z,30.65
2022-10-22T22:56:22.517Z,32.70
2022-10-22T22:58:24.217Z,33.40
2022-10-22T23:00:25.902Z,32.25
2022-10-22T23:02:27.702Z,31.55
2022-10-22T23:04:30.180Z,31.00
2022-10-22T23:06:36.294Z,29.95
2022-10-22T23:08:37.969Z,30.15
2022-10-22T23:10:39.791Z,28.98
2022-10-22T23:12:41.761Z,30.88
2022-10-22T23:14:43.817Z,30.90
2022-10-22T23:16:46.817Z,31.45
2022-10-22T23:20:49.981Z,28.17
2022-10-22T23:22:51.945Z,29.55
2022-10-22T23:24:53.482Z,28.27
2022-10-22T23:26:55.840Z,27.73
2022-10-22T23:29:04.759Z,27.85
2022-10-22T23:31:07.732Z,28.15
2022-10-22T23:35:11.139Z,27.15
2022-10-22T23:37:12.807Z,28.38
2022-10-22T23:39:15.768Z,27.25
2022-10-22T23:41:17.689Z,27.45
2022-10-22T23:43:19.215Z,28.52
2022-10-22T23:45:20.795Z,30.13
2022-10-22T23:47:22.502Z,30.17
2022-10-22T23:49:24.309Z,30.65
2022-10-22T23:51:25.814Z,31.05
2022-10-22T23:53:27.657Z,31.95
2022-10-22T23:55:29.184Z,33.80
2022-10-22T23:57:30.809Z,34.22
2022-10-22T23:59:32.553Z,36.47
